sensor_id;sensor_type;location;lat;lon;timestamp;P1;durP1;ratioP1;P2;durP2;ratioP2
18021;SDS011;9136;48.822;7.966;2023-07-20T00:00:32;14.95;;;14.35;;
18021;SDS011;9136;48.822;7.966;2023-07-20T00:03:20;16.63;;;15.93;;
18021;SDS011;9136;48.822;7.966;2023-07-20T00:06:11;17.23;;;16.42;;
18021;SDS011;9136;48.822;7.966;2023-07-20T00:08:58;16.55;;;15.75;;
18021;SDS011;9136;48.822;7.966;2023-07-20T00:11:48;17.50;;;16.70;;
18021;SDS011;9136;48.822;7.966;2023-07-20T00:14:38;17.17;;;16.38;;
18021;SDS011;9136;48.822;7.966;2023-07-20T00:17:26;14.77;;;14.18;;
18021;SDS011;9136;48.822;7.966;2023-07-20T00:20:14;16.15;;;15.45;;
18021;SDS011;9136;48.822;7.966;2023-07-20T00:23:02;15.88;;;15.18;;
18021;SDS011;9136;48.822;7.966;2023-07-20T00:25:50;17.38;;;16.58;;
18021;SDS011;9136;48.822;7.966;2023-07-20T00:28:39;17.50;;;16.70;;
18021;SDS011;9136;48.822;7.966;2023-07-20T00:31:29;15.43;;;14.73;;
18021;SDS011;9136;48.822;7.966;2023-07-20T00:34:17;16.45;;;15.75;;
18021;SDS011;9136;48.822;7.966;2023-07-20T00:37:05;17.15;;;16.25;;
18021;SDS011;9136;48.822;7.966;2023-07-20T00:39:53;16.70;;;15.95;;
18021;SDS011;9136;48.822;7.966;2023-07-20T00:42:41;16.33;;;15.53;;
18021;SDS011;9136;48.822;7.966;2023-07-20T00:45:32;16.33;;;15.53;;
18021;SDS011;9136;48.822;7.966;2023-07-20T00:48:23;17.47;;;16.67;;
18021;SDS011;9136;48.822;7.966;2023-07-20T00:51:12;17.13;;;16.43;;
18021;SDS011;9136;48.822;7.966;2023-07-20T00:54:02;16.20;;;15.50;;
18021;SDS011;9136;48.822;7.966;2023-07-20T00:56:50;15.83;;;15.13;;
18021;SDS011;9136;48.822;7.966;2023-07-20T00:59:40;17.03;;;16.23;;
18021;SDS011;9136;48.822;7.966;2023-07-20T01:02:28;16.40;;;15.70;;
18021;SDS011;9136;48.822;7.966;2023-07-20T01:05:17;16.20;;;15.47;;
18021;SDS011;9136;48.822;7.966;2023-07-20T01:08:07;16.23;;;15.43;;
18021;SDS011;9136;48.822;7.966;2023-07-20T01:11:01;15.03;;;14.33;;
18021;SDS011;9136;48.822;7.966;2023-07-20T01:13:57;18.00;;;17.20;;
18021;SDS011;9136;48.822;7.966;2023-07-20T01:16:46;17.57;;;16.77;;
18021;SDS011;9136;48.822;7.966;2023-07-20T01:19:35;16.03;;;15.23;;
18021;SDS011;9136;48.822;7.966;2023-07-20T01:22:31;16.27;;;15.37;;
18021;SDS011;9136;48.822;7.966;2023-07-20T01:25:47;16.97;;;15.90;;
18021;SDS011;9136;48.822;7.966;2023-07-20T01:28:48;17.57;;;16.00;;
18021;SDS011;9136;48.822;7.966;2023-07-20T01:31:55;16.40;;;15.70;;
18021;SDS011;9136;48.822;7.966;2023-07-20T01:34:45;15.90;;;15.20;;
18021;SDS011;9136;48.822;7.966;2023-07-20T01:37:37;15.57;;;14.87;;
18021;SDS011;9136;48.822;7.966;2023-07-20T01:40:26;15.80;;;15.10;;
18021;SDS011;9136;48.822;7.966;2023-07-20T01:43:14;15.80;;;15.10;;
18021;SDS011;9136;48.822;7.966;2023-07-20T01:46:03;15.83;;;15.03;;
18021;SDS011;9136;48.822;7.966;2023-07-20T01:48:53;15.37;;;14.67;;
18021;SDS011;9136;48.822;7.966;2023-07-20T01:51:41;15.87;;;15.17;;
18021;SDS011;9136;48.822;7.966;2023-07-20T01:54:29;15.50;;;14.80;;
18021;SDS011;9136;48.822;7.966;2023-07-20T01:57:17;15.47;;;14.77;;
18021;SDS011;9136;48.822;7.966;2023-07-20T02:00:05;15.40;;;14.70;;
18021;SDS011;9136;48.822;7.966;2023-07-20T02:02:55;16.63;;;15.93;;
18021;SDS011;9136;48.822;7.966;2023-07-20T02:05:45;17.13;;;16.33;;
18021;SDS011;9136;48.822;7.966;2023-07-20T02:08:34;16.20;;;15.50;;
18021;SDS011;9136;48.822;7.966;2023-07-20T02:11:22;18.47;;;17.60;;
18021;SDS011;9136;48.822;7.966;2023-07-20T02:14:10;17.13;;;16.40;;
18021;SDS011;9136;48.822;7.966;2023-07-20T02:16:58;16.53;;;15.73;;
18021;SDS011;9136;48.822;7.966;2023-07-20T02:19:49;16.47;;;15.60;;
18021;SDS011;9136;48.822;7.966;2023-07-20T02:22:39;15.87;;;15.17;;
18021;SDS011;9136;48.822;7.966;2023-07-20T02:25:27;14.70;;;14.10;;
18021;SDS011;9136;48.822;7.966;2023-07-20T02:28:15;17.13;;;15.50;;
18021;SDS011;9136;48.822;7.966;2023-07-20T02:31:03;16.10;;;15.40;;
18021;SDS011;9136;48.822;7.966;2023-07-20T02:33:51;14.87;;;14.27;;
18021;SDS011;9136;48.822;7.966;2023-07-20T02:36:38;14.47;;;13.87;;
18021;SDS011;9136;48.822;7.966;2023-07-20T02:39:30;15.20;;;14.50;;
18021;SDS011;9136;48.822;7.966;2023-07-20T02:42:17;16.17;;;15.37;;
18021;SDS011;9136;48.822;7.966;2023-07-20T02:45:05;15.90;;;15.20;;
18021;SDS011;9136;48.822;7.966;2023-07-20T02:47:54;16.63;;;15.90;;
18021;SDS011;9136;48.822;7.966;2023-07-20T02:50:45;15.27;;;14.57;;
18021;SDS011;9136;48.822;7.966;2023-07-20T02:53:32;15.73;;;15.03;;
18021;SDS011;9136;48.822;7.966;2023-07-20T02:56:22;15.93;;;15.17;;
18021;SDS011;9136;48.822;7.966;2023-07-20T02:59:10;16.00;;;15.23;;
18021;SDS011;9136;48.822;7.966;2023-07-20T03:01:58;17.00;;;16.20;;
18021;SDS011;9136;48.822;7.966;2023-07-20T03:04:48;17.53;;;16.73;;
18021;SDS011;9136;48.822;7.966;2023-07-20T03:07:36;16.53;;;15.83;;
18021;SDS011;9136;48.822;7.966;2023-07-20T03:10:23;15.90;;;15.20;;
18021;SDS011;9136;48.822;7.966;2023-07-20T03:13:13;17.03;;;16.20;;
18021;SDS011;9136;48.822;7.966;2023-07-20T03:16:02;16.33;;;15.63;;
18021;SDS011;9136;48.822;7.966;2023-07-20T03:18:50;15.90;;;15.10;;
18021;SDS011;9136;48.822;7.966;2023-07-20T03:21:38;17.17;;;16.43;;
18021;SDS011;9136;48.822;7.966;2023-07-20T03:24:27;15.97;;;15.17;;
18021;SDS011;9136;48.822;7.966;2023-07-20T03:27:16;15.23;;;14.53;;
18021;SDS011;9136;48.822;7.966;2023-07-20T03:30:10;15.30;;;14.60;;
18021;SDS011;9136;48.822;7.966;2023-07-20T03:32:58;16.50;;;15.80;;
18021;SDS011;9136;48.822;7.966;2023-07-20T03:35:46;15.83;;;15.13;;
18021;SDS011;9136;48.822;7.966;2023-07-20T03:38:35;16.70;;;16.00;;
18021;SDS011;9136;48.822;7.966;2023-07-20T03:41:25;16.13;;;15.43;;
18021;SDS011;9136;48.822;7.966;2023-07-20T03:44:13;16.27;;;15.57;;
18021;SDS011;9136;48.822;7.966;2023-07-20T03:47:02;15.60;;;14.90;;
18021;SDS011;9136;48.822;7.966;2023-07-20T03:49:50;16.13;;;15.37;;
18021;SDS011;9136;48.822;7.966;2023-07-20T03:52:39;18.80;;;17.67;;
18021;SDS011;9136;48.822;7.966;2023-07-20T03:55:26;16.27;;;15.57;;
18021;SDS011;9136;48.822;7.966;2023-07-20T03:58:18;16.10;;;15.40;;
18021;SDS011;9136;48.822;7.966;2023-07-20T04:01:07;16.83;;;16.03;;
18021;SDS011;9136;48.822;7.966;2023-07-20T04:03:57;17.70;;;16.90;;
18021;SDS011;9136;48.822;7.966;2023-07-20T04:06:48;17.90;;;17.10;;
18021;SDS011;9136;48.822;7.966;2023-07-20T04:09:38;16.63;;;15.83;;
18021;SDS011;9136;48.822;7.966;2023-07-20T04:12:26;15.87;;;15.10;;
18021;SDS011;9136;48.822;7.966;2023-07-20T04:15:16;15.03;;;14.40;;
18021;SDS011;9136;48.822;7.966;2023-07-20T04:18:09;16.17;;;15.40;;
18021;SDS011;9136;48.822;7.966;2023-07-20T04:24:08;15.80;;;15.10;;
18021;SDS011;9136;48.822;7.966;2023-07-20T04:26:56;16.20;;;15.50;;
18021;SDS011;9136;48.822;7.966;2023-07-20T04:29:57;15.33;;;14.63;;
18021;SDS011;9136;48.822;7.966;2023-07-20T04:32:57;15.17;;;14.53;;
18021;SDS011;9136;48.822;7.966;2023-07-20T04:35:46;16.07;;;15.37;;
18021;SDS011;9136;48.822;7.966;2023-07-20T04:38:43;16.20;;;15.40;;
18021;SDS011;9136;48.822;7.966;2023-07-20T04:41:33;17.07;;;16.37;;
18021;SDS011;9136;48.822;7.966;2023-07-20T04:44:23;15.77;;;15.07;;
18021;SDS011;9136;48.822;7.966;2023-07-20T04:47:11;16.00;;;15.30;;
18021;SDS011;9136;48.822;7.966;2023-07-20T04:50:01;15.80;;;15.10;;
18021;SDS011;9136;48.822;7.966;2023-07-20T04:52:51;17.03;;;16.23;;
18021;SDS011;9136;48.822;7.966;2023-07-20T04:55:48;16.63;;;15.87;;
18021;SDS011;9136;48.822;7.966;2023-07-20T04:58:43;16.87;;;16.13;;
18021;SDS011;9136;48.822;7.966;2023-07-20T05:01:32;15.33;;;14.63;;
18021;SDS011;9136;48.822;7.966;2023-07-20T05:04:22;17.57;;;16.70;;
18021;SDS011;9136;48.822;7.966;2023-07-20T05:07:13;16.50;;;15.77;;
18021;SDS011;9136;48.822;7.966;2023-07-20T05:10:02;17.67;;;16.77;;
18021;SDS011;9136;48.822;7.966;2023-07-20T05:12:52;16.93;;;16.13;;
18021;SDS011;9136;48.822;7.966;2023-07-20T05:15:44;15.00;;;14.40;;
18021;SDS011;9136;48.822;7.966;2023-07-20T05:18:31;16.03;;;15.23;;
18021;SDS011;9136;48.822;7.966;2023-07-20T05:21:20;16.97;;;16.27;;
18021;SDS011;9136;48.822;7.966;2023-07-20T05:24:07;16.13;;;15.43;;
18021;SDS011;9136;48.822;7.966;2023-07-20T05:26:55;15.83;;;15.13;;
18021;SDS011;9136;48.822;7.966;2023-07-20T05:29:46;16.43;;;15.57;;
18021;SDS011;9136;48.822;7.966;2023-07-20T05:32:38;16.70;;;15.80;;
18021;SDS011;9136;48.822;7.966;2023-07-20T05:35:28;16.27;;;15.47;;
18021;SDS011;9136;48.822;7.966;2023-07-20T05:38:16;16.80;;;16.00;;
18021;SDS011;9136;48.822;7.966;2023-07-20T05:41:04;15.87;;;15.17;;
18021;SDS011;9136;48.822;7.966;2023-07-20T05:43:56;16.77;;;15.97;;
18021;SDS011;9136;48.822;7.966;2023-07-20T05:46:45;16.60;;;15.80;;
18021;SDS011;9136;48.822;7.966;2023-07-20T05:49:34;17.27;;;16.47;;
18021;SDS011;9136;48.822;7.966;2023-07-20T05:52:22;15.77;;;15.07;;
18021;SDS011;9136;48.822;7.966;2023-07-20T05:55:10;17.67;;;16.77;;
18021;SDS011;9136;48.822;7.966;2023-07-20T05:57:59;16.07;;;15.33;;
18021;SDS011;9136;48.822;7.966;2023-07-20T06:00:50;17.27;;;16.27;;
18021;SDS011;9136;48.822;7.966;2023-07-20T06:03:42;16.70;;;15.80;;
18021;SDS011;9136;48.822;7.966;2023-07-20T06:06:30;15.70;;;15.00;;
18021;SDS011;9136;48.822;7.966;2023-07-20T06:09:18;14.43;;;13.83;;
18021;SDS011;9136;48.822;7.966;2023-07-20T06:12:06;15.83;;;15.13;;
18021;SDS011;9136;48.822;7.966;2023-07-20T06:14:55;16.87;;;16.10;;
18021;SDS011;9136;48.822;7.966;2023-07-20T06:17:43;16.60;;;15.90;;
18021;SDS011;9136;48.822;7.966;2023-07-20T06:20:34;16.85;;;16.13;;
18021;SDS011;9136;48.822;7.966;2023-07-20T06:23:23;15.43;;;14.73;;
18021;SDS011;9136;48.822;7.966;2023-07-20T06:26:22;16.80;;;16.00;;
18021;SDS011;9136;48.822;7.966;2023-07-20T06:29:10;15.65;;;14.95;;
18021;SDS011;9136;48.822;7.966;2023-07-20T06:31:58;16.88;;;16.13;;
18021;SDS011;9136;48.822;7.966;2023-07-20T06:34:47;15.75;;;15.05;;
18021;SDS011;9136;48.822;7.966;2023-07-20T06:37:37;17.00;;;16.20;;
18021;SDS011;9136;48.822;7.966;2023-07-20T06:40:25;15.88;;;15.18;;
18021;SDS011;9136;48.822;7.966;2023-07-20T06:43:13;15.10;;;14.48;;
18021;SDS011;9136;48.822;7.966;2023-07-20T06:46:02;15.90;;;15.20;;
18021;SDS011;9136;48.822;7.966;2023-07-20T06:48:52;15.27;;;14.57;;
18021;SDS011;9136;48.822;7.966;2023-07-20T06:51:41;17.02;;;16.10;;
18021;SDS011;9136;48.822;7.966;2023-07-20T06:54:30;16.38;;;15.43;;
18021;SDS011;9136;48.822;7.966;2023-07-20T06:57:18;16.15;;;15.45;;
18021;SDS011;9136;48.822;7.966;2023-07-20T07:00:09;16.10;;;15.32;;
18021;SDS011;9136;48.822;7.966;2023-07-20T07:02:59;15.73;;;15.02;;
18021;SDS011;9136;48.822;7.966;2023-07-20T07:05:48;16.42;;;15.63;;
18021;SDS011;9136;48.822;7.966;2023-07-20T07:08:36;15.25;;;14.55;;
18021;SDS011;9136;48.822;7.966;2023-07-20T07:11:28;15.52;;;14.80;;
18021;SDS011;9136;48.822;7.966;2023-07-20T07:14:16;15.27;;;14.48;;
18021;SDS011;9136;48.822;7.966;2023-07-20T07:17:06;15.20;;;14.50;;
18021;SDS011;9136;48.822;7.966;2023-07-20T07:19:55;16.15;;;15.27;;
18021;SDS011;9136;48.822;7.966;2023-07-20T07:22:43;14.60;;;13.98;;
18021;SDS011;9136;48.822;7.966;2023-07-20T07:25:33;16.52;;;15.82;;
18021;SDS011;9136;48.822;7.966;2023-07-20T07:28:22;17.95;;;17.05;;
18021;SDS011;9136;48.822;7.966;2023-07-20T07:31:10;17.52;;;16.73;;
18021;SDS011;9136;48.822;7.966;2023-07-20T07:33:58;18.85;;;17.95;;
18021;SDS011;9136;48.822;7.966;2023-07-20T07:36:46;17.17;;;16.38;;
18021;SDS011;9136;48.822;7.966;2023-07-20T07:39:34;18.15;;;17.25;;
18021;SDS011;9136;48.822;7.966;2023-07-20T07:42:23;16.02;;;15.32;;
18021;SDS011;9136;48.822;7.966;2023-07-20T07:45:13;15.32;;;14.63;;
18021;SDS011;9136;48.822;7.966;2023-07-20T07:48:02;15.98;;;15.27;;
18021;SDS011;9136;48.822;7.966;2023-07-20T07:50:51;16.42;;;15.63;;
18021;SDS011;9136;48.822;7.966;2023-07-20T07:53:38;16.85;;;16.05;;
18021;SDS011;9136;48.822;7.966;2023-07-20T07:56:26;14.98;;;14.27;;
18021;SDS011;9136;48.822;7.966;2023-07-20T07:59:14;15.65;;;14.95;;
18021;SDS011;9136;48.822;7.966;2023-07-20T08:02:04;16.35;;;15.02;;
18021;SDS011;9136;48.822;7.966;2023-07-20T08:04:53;16.77;;;16.02;;
18021;SDS011;9136;48.822;7.966;2023-07-20T08:07:41;18.63;;;17.83;;
18021;SDS011;9136;48.822;7.966;2023-07-20T08:10:29;17.05;;;16.15;;
18021;SDS011;9136;48.822;7.966;2023-07-20T08:13:17;16.23;;;15.32;;
18021;SDS011;9136;48.822;7.966;2023-07-20T08:16:07;16.67;;;15.98;;
18021;SDS011;9136;48.822;7.966;2023-07-20T08:18:56;15.50;;;14.60;;
18021;SDS011;9136;48.822;7.966;2023-07-20T08:21:44;16.05;;;15.35;;
18021;SDS011;9136;48.822;7.966;2023-07-20T08:24:33;18.83;;;18.02;;
18021;SDS011;9136;48.822;7.966;2023-07-20T08:27:21;18.23;;;17.42;;
18021;SDS011;9136;48.822;7.966;2023-07-20T08:30:09;17.98;;;17.17;;
18021;SDS011;9136;48.822;7.966;2023-07-20T08:32:57;16.95;;;16.20;;
18021;SDS011;9136;48.822;7.966;2023-07-20T08:35:48;16.40;;;15.70;;
18021;SDS011;9136;48.822;7.966;2023-07-20T08:38:36;14.68;;;14.07;;
18021;SDS011;9136;48.822;7.966;2023-07-20T08:41:24;15.88;;;14.82;;
18021;SDS011;9136;48.822;7.966;2023-07-20T08:44:14;16.35;;;15.65;;
18021;SDS011;9136;48.822;7.966;2023-07-20T08:47:02;16.98;;;16.15;;
18021;SDS011;9136;48.822;7.966;2023-07-20T08:49:56;15.57;;;14.88;;
18021;SDS011;9136;48.822;7.966;2023-07-20T08:52:45;15.02;;;14.32;;
18021;SDS011;9136;48.822;7.966;2023-07-20T08:55:34;17.08;;;15.80;;
18021;SDS011;9136;48.822;7.966;2023-07-20T08:58:23;16.35;;;15.55;;
18021;SDS011;9136;48.822;7.966;2023-07-20T09:01:12;14.85;;;14.20;;
18021;SDS011;9136;48.822;7.966;2023-07-20T09:04:01;14.52;;;13.93;;
18021;SDS011;9136;48.822;7.966;2023-07-20T09:06:50;14.73;;;14.13;;
18021;SDS011;9136;48.822;7.966;2023-07-20T09:09:41;14.48;;;13.88;;
18021;SDS011;9136;48.822;7.966;2023-07-20T09:12:29;14.77;;;14.10;;
18021;SDS011;9136;48.822;7.966;2023-07-20T09:15:17;13.70;;;13.10;;
18021;SDS011;9136;48.822;7.966;2023-07-20T09:18:07;14.20;;;13.60;;
18021;SDS011;9136;48.822;7.966;2023-07-20T09:21:01;14.95;;;14.15;;
18021;SDS011;9136;48.822;7.966;2023-07-20T09:23:50;13.07;;;12.48;;
18021;SDS011;9136;48.822;7.966;2023-07-20T09:26:45;13.52;;;12.93;;
18021;SDS011;9136;48.822;7.966;2023-07-20T09:29:46;13.93;;;13.07;;
18021;SDS011;9136;48.822;7.966;2023-07-20T09:32:40;13.75;;;13.05;;
18021;SDS011;9136;48.822;7.966;2023-07-20T09:35:29;12.75;;;11.88;;
18021;SDS011;9136;48.822;7.966;2023-07-20T09:38:19;12.80;;;12.30;;
18021;SDS011;9136;48.822;7.966;2023-07-20T09:41:06;13.95;;;13.35;;
18021;SDS011;9136;48.822;7.966;2023-07-20T09:43:56;12.73;;;12.13;;
18021;SDS011;9136;48.822;7.966;2023-07-20T09:46:44;14.18;;;13.48;;
18021;SDS011;9136;48.822;7.966;2023-07-20T09:49:38;12.40;;;11.80;;
18021;SDS011;9136;48.822;7.966;2023-07-20T09:52:27;13.68;;;13.07;;
18021;SDS011;9136;48.822;7.966;2023-07-20T09:55:16;13.52;;;12.93;;
18021;SDS011;9136;48.822;7.966;2023-07-20T09:58:04;12.25;;;11.68;;
18021;SDS011;9136;48.822;7.966;2023-07-20T10:00:57;12.80;;;12.25;;
18021;SDS011;9136;48.822;7.966;2023-07-20T10:03:51;12.18;;;11.68;;
18021;SDS011;9136;48.822;7.966;2023-07-20T10:06:42;12.43;;;11.93;;
18021;SDS011;9136;48.822;7.966;2023-07-20T10:09:32;12.85;;;12.15;;
18021;SDS011;9136;48.822;7.966;2023-07-20T10:12:26;12.32;;;11.82;;
18021;SDS011;9136;48.822;7.966;2023-07-20T10:15:17;12.50;;;12.00;;
18021;SDS011;9136;48.822;7.966;2023-07-20T10:18:12;12.35;;;11.85;;
18021;SDS011;9136;48.822;7.966;2023-07-20T10:21:04;12.30;;;11.80;;
18021;SDS011;9136;48.822;7.966;2023-07-20T10:23:56;12.25;;;11.75;;
18021;SDS011;9136;48.822;7.966;2023-07-20T10:26:45;11.50;;;11.00;;
18021;SDS011;9136;48.822;7.966;2023-07-20T10:29:33;12.50;;;11.90;;
18021;SDS011;9136;48.822;7.966;2023-07-20T10:32:24;13.32;;;12.40;;
18021;SDS011;9136;48.822;7.966;2023-07-20T10:35:14;11.93;;;11.43;;
18021;SDS011;9136;48.822;7.966;2023-07-20T10:38:03;12.20;;;11.70;;
18021;SDS011;9136;48.822;7.966;2023-07-20T10:40:54;12.80;;;12.20;;
18021;SDS011;9136;48.822;7.966;2023-07-20T10:43:43;11.88;;;11.38;;
18021;SDS011;9136;48.822;7.966;2023-07-20T10:46:42;12.45;;;11.95;;
18021;SDS011;9136;48.822;7.966;2023-07-20T10:49:33;11.48;;;10.95;;
18021;SDS011;9136;48.822;7.966;2023-07-20T10:52:24;12.75;;;12.18;;
18021;SDS011;9136;48.822;7.966;2023-07-20T10:55:14;13.00;;;12.20;;
18021;SDS011;9136;48.822;7.966;2023-07-20T10:58:11;12.85;;;12.27;;
18021;SDS011;9136;48.822;7.966;2023-07-20T11:01:03;12.55;;;12.05;;
18021;SDS011;9136;48.822;7.966;2023-07-20T11:03:58;12.50;;;11.90;;
18021;SDS011;9136;48.822;7.966;2023-07-20T11:06:53;12.15;;;11.65;;
18021;SDS011;9136;48.822;7.966;2023-07-20T11:09:44;12.32;;;11.82;;
18021;SDS011;9136;48.822;7.966;2023-07-20T11:12:33;12.70;;;12.20;;
18021;SDS011;9136;48.822;7.966;2023-07-20T11:15:23;13.15;;;12.55;;
18021;SDS011;9136;48.822;7.966;2023-07-20T11:18:15;11.98;;;11.48;;
18021;SDS011;9136;48.822;7.966;2023-07-20T11:21:03;11.77;;;11.27;;
18021;SDS011;9136;48.822;7.966;2023-07-20T11:23:54;11.35;;;10.85;;
18021;SDS011;9136;48.822;7.966;2023-07-20T11:26:47;11.25;;;10.75;;
18021;SDS011;9136;48.822;7.966;2023-07-20T11:29:37;10.30;;;9.85;;
18021;SDS011;9136;48.822;7.966;2023-07-20T11:32:25;10.93;;;10.43;;
18021;SDS011;9136;48.822;7.966;2023-07-20T11:35:13;10.02;;;9.63;;
18021;SDS011;9136;48.822;7.966;2023-07-20T11:38:06;10.00;;;9.45;;
18021;SDS011;9136;48.822;7.966;2023-07-20T11:41:05;10.55;;;10.05;;
18021;SDS011;9136;48.822;7.966;2023-07-20T11:43:57;10.05;;;9.65;;
18021;SDS011;9136;48.822;7.966;2023-07-20T11:46:46;10.40;;;10.00;;
18021;SDS011;9136;48.822;7.966;2023-07-20T11:49:34;9.77;;;9.38;;
18021;SDS011;9136;48.822;7.966;2023-07-20T11:52:23;9.63;;;9.23;;
18021;SDS011;9136;48.822;7.966;2023-07-20T11:55:14;10.30;;;9.80;;
18021;SDS011;9136;48.822;7.966;2023-07-20T11:58:02;10.35;;;9.95;;
18021;SDS011;9136;48.822;7.966;2023-07-20T12:00:52;9.95;;;9.55;;
18021;SDS011;9136;48.822;7.966;2023-07-20T12:03:44;9.77;;;9.38;;
18021;SDS011;9136;48.822;7.966;2023-07-20T12:06:32;9.77;;;9.38;;
18021;SDS011;9136;48.822;7.966;2023-07-20T12:09:20;10.18;;;9.70;;
18021;SDS011;9136;48.822;7.966;2023-07-20T12:12:11;10.70;;;10.20;;
18021;SDS011;9136;48.822;7.966;2023-07-20T12:15:13;9.82;;;9.40;;
18021;SDS011;9136;48.822;7.966;2023-07-20T12:18:08;9.25;;;8.85;;
18021;SDS011;9136;48.822;7.966;2023-07-20T12:20:58;10.50;;;9.90;;
18021;SDS011;9136;48.822;7.966;2023-07-20T12:23:46;10.05;;;9.50;;
18021;SDS011;9136;48.822;7.966;2023-07-20T12:26:36;9.60;;;9.10;;
18021;SDS011;9136;48.822;7.966;2023-07-20T12:29:26;8.65;;;8.25;;
18021;SDS011;9136;48.822;7.966;2023-07-20T12:32:18;9.40;;;9.00;;
18021;SDS011;9136;48.822;7.966;2023-07-20T12:35:11;9.30;;;8.90;;
18021;SDS011;9136;48.822;7.966;2023-07-20T12:38:01;8.82;;;8.43;;
18021;SDS011;9136;48.822;7.966;2023-07-20T12:40:49;9.02;;;8.63;;
18021;SDS011;9136;48.822;7.966;2023-07-20T12:43:38;9.35;;;8.95;;
18021;SDS011;9136;48.822;7.966;2023-07-20T12:46:26;9.50;;;9.10;;
18021;SDS011;9136;48.822;7.966;2023-07-20T12:49:15;9.85;;;9.45;;
18021;SDS011;9136;48.822;7.966;2023-07-20T12:52:04;9.60;;;9.20;;
18021;SDS011;9136;48.822;7.966;2023-07-20T12:54:55;9.85;;;9.40;;
18021;SDS011;9136;48.822;7.966;2023-07-20T12:57:43;9.18;;;8.77;;
18021;SDS011;9136;48.822;7.966;2023-07-20T13:00:31;9.38;;;8.98;;
18021;SDS011;9136;48.822;7.966;2023-07-20T13:03:19;10.38;;;9.90;;
18021;SDS011;9136;48.822;7.966;2023-07-20T13:06:07;9.43;;;9.02;;
18021;SDS011;9136;48.822;7.966;2023-07-20T13:08:57;10.32;;;9.82;;
18021;SDS011;9136;48.822;7.966;2023-07-20T13:11:46;9.63;;;9.23;;
18021;SDS011;9136;48.822;7.966;2023-07-20T13:14:34;8.95;;;8.55;;
18021;SDS011;9136;48.822;7.966;2023-07-20T13:17:22;9.25;;;8.85;;
18021;SDS011;9136;48.822;7.966;2023-07-20T13:20:10;8.98;;;8.57;;
18021;SDS011;9136;48.822;7.966;2023-07-20T13:22:58;9.85;;;9.45;;
18021;SDS011;9136;48.822;7.966;2023-07-20T13:25:48;9.35;;;8.95;;
18021;SDS011;9136;48.822;7.966;2023-07-20T13:28:37;8.68;;;8.27;;
18021;SDS011;9136;48.822;7.966;2023-07-20T13:31:26;9.98;;;9.57;;
18021;SDS011;9136;48.822;7.966;2023-07-20T13:34:14;9.35;;;8.95;;
18021;SDS011;9136;48.822;7.966;2023-07-20T13:37:09;9.85;;;9.43;;
18021;SDS011;9136;48.822;7.966;2023-07-20T13:39:59;8.73;;;8.32;;
18021;SDS011;9136;48.822;7.966;2023-07-20T13:42:48;8.88;;;8.48;;
18021;SDS011;9136;48.822;7.966;2023-07-20T13:45:36;9.10;;;8.70;;
18021;SDS011;9136;48.822;7.966;2023-07-20T13:48:24;9.30;;;8.90;;
18021;SDS011;9136;48.822;7.966;2023-07-20T13:51:13;10.27;;;9.45;;
18021;SDS011;9136;48.822;7.966;2023-07-20T13:54:00;9.40;;;8.90;;
18021;SDS011;9136;48.822;7.966;2023-07-20T13:56:48;9.82;;;9.43;;
18021;SDS011;9136;48.822;7.966;2023-07-20T13:59:38;9.18;;;8.75;;
18021;SDS011;9136;48.822;7.966;2023-07-20T14:02:26;8.48;;;8.18;;
18021;SDS011;9136;48.822;7.966;2023-07-20T14:05:16;8.63;;;8.23;;
18021;SDS011;9136;48.822;7.966;2023-07-20T14:08:07;7.60;;;7.30;;
18021;SDS011;9136;48.822;7.966;2023-07-20T14:10:55;7.78;;;7.38;;
18021;SDS011;9136;48.822;7.966;2023-07-20T14:13:42;8.25;;;7.95;;
18021;SDS011;9136;48.822;7.966;2023-07-20T14:16:32;8.45;;;8.07;;
18021;SDS011;9136;48.822;7.966;2023-07-20T14:19:20;9.40;;;9.00;;
18021;SDS011;9136;48.822;7.966;2023-07-20T14:22:09;8.93;;;8.52;;
18021;SDS011;9136;48.822;7.966;2023-07-20T14:24:56;9.30;;;8.90;;
18021;SDS011;9136;48.822;7.966;2023-07-20T14:27:45;9.20;;;8.80;;
18021;SDS011;9136;48.822;7.966;2023-07-20T14:30:32;9.07;;;8.68;;
18021;SDS011;9136;48.822;7.966;2023-07-20T14:33:22;9.20;;;8.80;;
18021;SDS011;9136;48.822;7.966;2023-07-20T14:36:09;9.82;;;9.43;;
18021;SDS011;9136;48.822;7.966;2023-07-20T14:38:57;9.30;;;8.90;;
18021;SDS011;9136;48.822;7.966;2023-07-20T14:41:45;9.98;;;9.43;;
18021;SDS011;9136;48.822;7.966;2023-07-20T14:44:33;8.98;;;8.57;;
18021;SDS011;9136;48.822;7.966;2023-07-20T14:47:21;9.45;;;9.05;;
18021;SDS011;9136;48.822;7.966;2023-07-20T14:50:10;9.10;;;8.70;;
18021;SDS011;9136;48.822;7.966;2023-07-20T14:53:01;9.55;;;9.15;;
18021;SDS011;9136;48.822;7.966;2023-07-20T14:55:49;10.93;;;10.43;;
18021;SDS011;9136;48.822;7.966;2023-07-20T14:58:37;9.27;;;8.88;;
18021;SDS011;9136;48.822;7.966;2023-07-20T15:01:25;11.15;;;10.07;;
18021;SDS011;9136;48.822;7.966;2023-07-20T15:04:12;10.00;;;9.60;;
18021;SDS011;9136;48.822;7.966;2023-07-20T15:07:02;10.63;;;9.80;;
18021;SDS011;9136;48.822;7.966;2023-07-20T15:09:51;9.80;;;9.30;;
18021;SDS011;9136;48.822;7.966;2023-07-20T15:12:39;10.13;;;9.73;;
18021;SDS011;9136;48.822;7.966;2023-07-20T15:15:28;9.75;;;9.35;;
18021;SDS011;9136;48.822;7.966;2023-07-20T15:18:18;9.43;;;8.95;;
18021;SDS011;9136;48.822;7.966;2023-07-20T15:21:09;9.13;;;8.73;;
18021;SDS011;9136;48.822;7.966;2023-07-20T15:23:59;8.80;;;8.07;;
18021;SDS011;9136;48.822;7.966;2023-07-20T15:26:49;8.45;;;8.13;;
18021;SDS011;9136;48.822;7.966;2023-07-20T15:29:37;8.55;;;8.15;;
18021;SDS011;9136;48.822;7.966;2023-07-20T15:32:35;9.18;;;8.77;;
18021;SDS011;9136;48.822;7.966;2023-07-20T15:35:23;8.80;;;8.43;;
18021;SDS011;9136;48.822;7.966;2023-07-20T15:38:11;8.70;;;8.30;;
18021;SDS011;9136;48.822;7.966;2023-07-20T15:41:02;9.05;;;8.65;;
18021;SDS011;9136;48.822;7.966;2023-07-20T15:43:50;8.45;;;8.07;;
18021;SDS011;9136;48.822;7.966;2023-07-20T15:46:45;8.93;;;8.52;;
18021;SDS011;9136;48.822;7.966;2023-07-20T15:49:36;8.48;;;8.18;;
18021;SDS011;9136;48.822;7.966;2023-07-20T15:52:24;8.98;;;8.55;;
18021;SDS011;9136;48.822;7.966;2023-07-20T15:55:12;9.88;;;9.38;;
18021;SDS011;9136;48.822;7.966;2023-07-20T15:58:01;9.68;;;9.27;;
18021;SDS011;9136;48.822;7.966;2023-07-20T16:00:52;9.55;;;9.15;;
18021;SDS011;9136;48.822;7.966;2023-07-20T16:03:42;10.15;;;9.65;;
18021;SDS011;9136;48.822;7.966;2023-07-20T16:06:30;10.25;;;9.85;;
18021;SDS011;9136;48.822;7.966;2023-07-20T16:09:18;9.88;;;9.48;;
18021;SDS011;9136;48.822;7.966;2023-07-20T16:12:06;9.90;;;9.50;;
18021;SDS011;9136;48.822;7.966;2023-07-20T16:14:56;9.98;;;9.55;;
18021;SDS011;9136;48.822;7.966;2023-07-20T16:17:45;10.00;;;9.60;;
18021;SDS011;9136;48.822;7.966;2023-07-20T16:20:33;10.38;;;9.98;;
18021;SDS011;9136;48.822;7.966;2023-07-20T16:23:21;10.52;;;10.07;;
18021;SDS011;9136;48.822;7.966;2023-07-20T16:26:08;10.48;;;9.98;;
18021;SDS011;9136;48.822;7.966;2023-07-20T16:28:56;10.18;;;9.77;;
18021;SDS011;9136;48.822;7.966;2023-07-20T16:31:45;9.95;;;9.55;;
18021;SDS011;9136;48.822;7.966;2023-07-20T16:34:33;9.55;;;9.15;;
18021;SDS011;9136;48.822;7.966;2023-07-20T16:37:21;10.13;;;9.73;;
18021;SDS011;9136;48.822;7.966;2023-07-20T16:40:09;10.68;;;10.18;;
18021;SDS011;9136;48.822;7.966;2023-07-20T16:42:58;11.07;;;10.48;;
18021;SDS011;9136;48.822;7.966;2023-07-20T16:45:45;11.13;;;10.63;;
18021;SDS011;9136;48.822;7.966;2023-07-20T16:48:35;10.73;;;10.23;;
18021;SDS011;9136;48.822;7.966;2023-07-20T16:51:24;11.07;;;10.57;;
18021;SDS011;9136;48.822;7.966;2023-07-20T16:54:12;11.13;;;10.63;;
18021;SDS011;9136;48.822;7.966;2023-07-20T16:57:00;10.93;;;10.45;;